Time;durP1;ratioP1;P1;durP2;ratioP2;P2;SDS_P1;SDS_P2;PMS_P1;PMS_P2;Temp;Humidity;BMP_temperature;BMP_pressure;BME280_temperature;BME280_humidity;BME280_pressure;Samples;Min_cycle;Max_cycle;Signal;HPM_P1;HPM_P2
2021/05/10 00:01:01;;;;;;;0.10;0.10;;;15.10;68.00;;;;;;4990368;28;20046;-63
2021/05/10 00:03:28;;;;;;;0.10;0.10;;;15.10;68.00;;;;;;4991801;28;20501;-63
2021/05/10 00:05:55;;;;;;;0.10;0.10;;;15.00;68.00;;;;;;4994520;28;20082;-63
2021/05/10 00:08:22;;;;;;;0.10;0.10;;;15.10;68.10;;;;;;4994962;28;20129;-63
2021/05/10 00:10:49;;;;;;;0.10;0.10;;;15.10;68.10;;;;;;4995235;28;20057;-63
2021/05/10 00:13:18;;;;;;;0.00;0.00;;;15.10;68.20;;;;;;4994792;28;20092;-63
2021/05/10 00:15:46;;;;;;;0.10;0.10;;;15.10;67.90;;;;;;4981229;28;20173;-63
2021/05/10 00:18:13;;;;;;;0.10;0.10;;;15.10;68.70;;;;;;4994932;28;20050;-63
2021/05/10 00:20:43;;;;;;;0.00;0.00;;;15.10;68.80;;;;;;4994820;28;20043;-63
2021/05/10 00:23:11;;;;;;;0.10;0.10;;;15.10;68.60;;;;;;4994831;28;20042;-63
2021/05/10 00:25:39;;;;;;;0.10;0.10;;;15.00;69.20;;;;;;4994506;28;20133;-63
2021/05/10 00:28:06;;;;;;;0.10;0.10;;;15.00;68.90;;;;;;4994393;28;20066;-63
2021/05/10 00:30:33;;;;;;;0.20;0.20;;;15.10;68.80;;;;;;4994469;28;20101;-63
2021/05/10 00:33:00;;;;;;;0.10;0.10;;;15.10;68.90;;;;;;4994528;28;20085;-63
2021/05/10 00:35:27;;;;;;;0.10;0.10;;;15.10;69.00;;;;;;4994026;28;20452;-63
2021/05/10 00:37:53;;;;;;;0.20;0.20;;;15.10;69.20;;;;;;4994146;28;20042;-63
2021/05/10 00:40:22;;;;;;;0.10;0.10;;;14.80;70.50;;;;;;4993690;28;20173;-63
2021/05/10 00:42:49;;;;;;;0.10;0.10;;;14.70;70.70;;;;;;4994247;28;20051;-63
2021/05/10 00:45:16;;;;;;;0.10;0.10;;;14.70;70.90;;;;;;4994106;28;20526;-63
2021/05/10 00:47:44;;;;;;;0.10;0.10;;;14.80;70.60;;;;;;4994256;28;20058;-63
2021/05/10 00:50:13;;;;;;;0.10;0.10;;;14.80;70.50;;;;;;4994062;28;20050;-63
2021/05/10 00:52:39;;;;;;;0.05;0.05;;;14.80;70.50;;;;;;4994231;28;20181;-63
2021/05/10 00:55:09;;;;;;;0.20;0.20;;;14.90;70.20;;;;;;4993900;28;20042;-63
2021/05/10 00:57:50;;;;;;;0.20;0.20;;;15.00;70.40;;;;;;4993913;28;20057;-63
2021/05/10 01:00:17;;;;;;;0.10;0.10;;;15.00;70.30;;;;;;4993996;28;20042;-63
2021/05/10 01:02:44;;;;;;;0.10;0.10;;;14.90;70.10;;;;;;4993958;28;20050;-63
2021/05/10 01:05:15;;;;;;;0.10;0.10;;;15.00;70.00;;;;;;4993593;28;20046;-63
2021/05/10 01:07:42;;;;;;;0.10;0.10;;;15.00;70.30;;;;;;4994020;28;20513;-63
2021/05/10 01:10:12;;;;;;;0.10;0.10;;;15.00;70.70;;;;;;4993398;28;20061;-63
2021/05/10 01:12:38;;;;;;;0.20;0.20;;;14.90;70.70;;;;;;4994068;28;20061;-63
2021/05/10 01:15:07;;;;;;;0.28;0.20;;;14.90;70.50;;;;;;4993634;28;20073;-63
2021/05/10 01:17:34;;;;;;;0.10;0.10;;;15.00;70.50;;;;;;4993843;28;20050;-63
2021/05/10 01:20:09;;;;;;;0.20;0.20;;;15.00;70.70;;;;;;4993385;28;20445;-63
2021/05/10 01:22:44;;;;;;;0.10;0.10;;;15.00;70.80;;;;;;4993694;28;20087;-63
2021/05/10 01:25:18;;;;;;;0.10;0.10;;;14.80;71.60;;;;;;4993458;28;20089;-63
2021/05/10 01:27:45;;;;;;;0.20;0.20;;;14.80;71.50;;;;;;4993768;28;20054;-63
2021/05/10 01:30:15;;;;;;;0.20;0.20;;;14.70;72.20;;;;;;4993651;28;20058;-63
2021/05/10 01:32:42;;;;;;;0.10;0.10;;;14.70;72.10;;;;;;4993416;28;20050;-63
2021/05/10 01:35:10;;;;;;;0.10;0.10;;;14.70;72.60;;;;;;4993026;28;20156;-63
2021/05/10 01:37:36;;;;;;;0.17;0.17;;;14.60;72.70;;;;;;4993343;28;20446;-63
2021/05/10 01:40:05;;;;;;;0.10;0.10;;;14.70;72.40;;;;;;4992539;28;20053;-63
2021/05/10 01:42:32;;;;;;;0.20;0.20;;;14.70;72.70;;;;;;4993531;28;20505;-63
2021/05/10 01:44:58;;;;;;;0.15;0.15;;;14.60;72.70;;;;;;4993084;28;20054;-63
2021/05/10 01:47:25;;;;;;;0.10;0.10;;;14.60;73.00;;;;;;4993394;28;20047;-63
2021/05/10 01:49:51;;;;;;;0.20;0.20;;;14.60;73.30;;;;;;4992848;28;20486;-63
2021/05/10 01:52:18;;;;;;;0.20;0.20;;;14.60;73.40;;;;;;4992953;28;20102;-63
2021/05/10 01:54:51;;;;;;;0.20;0.20;;;14.60;73.40;;;;;;4992367;28;20057;-63
2021/05/10 01:57:20;;;;;;;0.20;0.20;;;14.60;73.30;;;;;;4992887;28;20125;-63
2021/05/10 01:59:47;;;;;;;0.20;0.20;;;14.50;73.30;;;;;;4992608;28;20046;-63
2021/05/10 02:02:14;;;;;;;0.10;0.10;;;14.50;73.10;;;;;;4993235;28;20046;-63
2021/05/10 02:05:18;;;;;;;0.17;0.17;;;14.50;73.30;;;;;;4992836;28;20737;-63
2021/05/10 02:07:50;;;;;;;0.22;0.22;;;14.50;72.80;;;;;;4992235;28;20053;-63
2021/05/10 02:10:17;;;;;;;0.10;0.10;;;14.50;72.70;;;;;;4992269;28;20121;-63
2021/05/10 02:13:06;;;;;;;0.10;0.10;;;14.60;72.80;;;;;;4992565;28;20486;-63
2021/05/10 02:15:39;;;;;;;0.10;0.10;;;14.50;72.00;;;;;;4992682;28;20077;-63
2021/05/10 02:18:07;;;;;;;0.20;0.20;;;14.50;71.80;;;;;;4992544;28;20046;-63
2021/05/10 02:20:34;;;;;;;0.10;0.10;;;14.60;71.80;;;;;;4992135;28;20457;-63
2021/05/10 02:23:06;;;;;;;0.10;0.10;;;14.60;71.80;;;;;;4987082;28;20047;-63
2021/05/10 02:25:38;;;;;;;0.28;0.28;;;14.60;71.90;;;;;;4975189;28;20046;-63
2021/05/10 02:28:09;;;;;;;0.20;0.20;;;14.60;71.80;;;;;;4976334;28;20054;-63
2021/05/10 02:30:37;;;;;;;;;;;14.60;71.60;;;;;;4982981;28;20137;-63
2021/05/10 02:33:11;;;;;;;0.20;0.20;;;14.60;72.00;;;;;;4983643;28;19929;-63
2021/05/10 02:35:39;;;;;;;0.20;0.20;;;14.60;72.10;;;;;;4990517;28;20125;-63
2021/05/10 02:38:05;;;;;;;0.20;0.20;;;14.50;72.50;;;;;;4991769;28;20133;-63
2021/05/10 02:40:32;;;;;;;0.28;0.28;;;14.40;73.00;;;;;;4991860;28;20050;-63
2021/05/10 02:42:59;;;;;;;0.30;0.30;;;14.40;73.30;;;;;;4978923;28;20050;-63
2021/05/10 02:45:25;;;;;;;0.20;0.20;;;14.40;73.10;;;;;;4991924;28;20054;-63
2021/05/10 02:47:52;;;;;;;0.30;0.30;;;14.40;72.90;;;;;;4991765;28;20528;-63
2021/05/10 02:50:21;;;;;;;0.35;0.35;;;14.40;72.50;;;;;;4992016;28;20481;-63
2021/05/10 02:52:48;;;;;;;0.22;0.22;;;14.40;72.70;;;;;;4991299;28;20466;-63
2021/05/10 02:55:15;;;;;;;0.30;0.30;;;14.30;72.80;;;;;;4991909;28;20133;-63
2021/05/10 02:57:42;;;;;;;0.30;0.30;;;14.20;73.00;;;;;;4990944;28;20046;-63
2021/05/10 03:00:11;;;;;;;0.22;0.22;;;14.20;72.80;;;;;;4979219;28;20181;-63
2021/05/10 03:02:37;;;;;;;0.13;0.13;;;14.30;72.40;;;;;;4991305;28;20510;-63
2021/05/10 03:05:05;;;;;;;0.20;0.20;;;14.20;72.10;;;;;;4991522;28;20050;-63
2021/05/10 03:07:33;;;;;;;0.20;0.20;;;14.10;71.80;;;;;;4991646;28;20514;-63
2021/05/10 03:09:59;;;;;;;0.30;0.30;;;14.00;71.80;;;;;;4991383;28;20050;-63
2021/05/10 03:12:29;;;;;;;0.20;0.20;;;13.90;72.00;;;;;;4991818;28;20042;-63
2021/05/10 03:14:56;;;;;;;0.20;0.20;;;13.90;72.40;;;;;;4991878;28;20177;-63
2021/05/10 03:17:22;;;;;;;0.20;0.20;;;13.90;72.20;;;;;;4991757;28;20483;-63
2021/05/10 03:19:49;;;;;;;0.20;0.20;;;13.80;72.50;;;;;;4991248;28;20053;-63
2021/05/10 03:22:15;;;;;;;0.20;0.20;;;13.80;72.50;;;;;;4991588;28;20096;-63
2021/05/10 03:24:41;;;;;;;0.25;0.25;;;13.80;72.60;;;;;;4991415;28;20180;-63
2021/05/10 03:27:08;;;;;;;0.20;0.20;;;13.80;72.50;;;;;;4991743;28;20078;-63
2021/05/10 03:29:34;;;;;;;0.10;0.10;;;13.80;72.70;;;;;;4991946;28;20054;-63
2021/05/10 03:32:00;;;;;;;0.20;0.20;;;13.80;72.70;;;;;;4989224;28;20066;-63
2021/05/10 03:34:27;;;;;;;0.10;0.10;;;13.80;72.90;;;;;;4980498;28;20108;-63
2021/05/10 03:36:53;;;;;;;0.10;0.10;;;13.80;72.70;;;;;;4991053;28;20051;-63
2021/05/10 03:39:19;;;;;;;0.20;0.20;;;13.90;72.80;;;;;;4990922;28;20065;-63
2021/05/10 03:41:45;;;;;;;0.30;0.30;;;13.80;72.90;;;;;;4991795;28;20082;-63
2021/05/10 03:44:12;;;;;;;0.20;0.20;;;13.90;73.10;;;;;;4991414;28;20562;-63
2021/05/10 03:46:38;;;;;;;0.30;0.30;;;13.90;73.20;;;;;;4991151;28;20054;-63
2021/05/10 03:49:04;;;;;;;0.20;0.20;;;13.90;73.20;;;;;;4991356;28;20185;-63
2021/05/10 03:51:31;;;;;;;0.20;0.20;;;13.80;73.50;;;;;;4991217;28;20061;-63
2021/05/10 03:53:57;;;;;;;0.20;0.20;;;13.70;74.00;;;;;;4991335;28;20058;-63
2021/05/10 03:56:23;;;;;;;0.30;0.30;;;13.60;74.50;;;;;;4991059;28;20406;-63
2021/05/10 03:58:49;;;;;;;0.20;0.20;;;13.60;74.30;;;;;;4991432;28;20141;-63
2021/05/10 04:01:16;;;;;;;0.10;0.10;;;13.70;74.30;;;;;;4984180;28;20042;-63
2021/05/10 04:03:48;;;;;;;0.10;0.10;;;13.80;74.10;;;;;;4991099;28;20101;-63
2021/05/10 04:08:54;;;;;;;0.15;0.15;;;13.80;74.00;;;;;;4990837;28;20050;-63
2021/05/10 04:13:57;;;;;;;0.30;0.30;;;13.70;74.00;;;;;;4990966;28;20081;-63
2021/05/10 04:16:24;;;;;;;0.20;0.20;;;13.70;73.80;;;;;;4993056;28;20058;-63
2021/05/10 04:18:50;;;;;;;0.28;0.28;;;13.80;73.80;;;;;;4994829;28;20058;-63
2021/05/10 04:21:16;;;;;;;0.20;0.20;;;13.70;73.90;;;;;;4994227;28;20173;-63
2021/05/10 04:23:42;;;;;;;0.22;0.22;;;13.70;73.80;;;;;;4994671;28;20409;-63
2021/05/10 04:26:09;;;;;;;0.20;0.20;;;13.70;73.70;;;;;;4994528;28;20395;-63
2021/05/10 04:28:35;;;;;;;0.20;0.20;;;13.70;73.70;;;;;;4994678;28;20058;-63
2021/05/10 04:31:02;;;;;;;0.20;0.20;;;13.60;73.80;;;;;;4994678;28;20098;-63
2021/05/10 04:33:30;;;;;;;0.20;0.20;;;13.70;74.70;;;;;;4980688;28;20054;-63
2021/05/10 04:35:56;;;;;;;0.28;0.28;;;13.70;73.70;;;;;;4993966;28;20548;-63
2021/05/10 04:38:24;;;;;;;0.30;0.30;;;13.60;73.70;;;;;;4994267;28;20050;-63
2021/05/10 04:40:51;;;;;;;0.38;0.38;;;13.50;74.30;;;;;;4994118;28;20046;-63
2021/05/10 04:43:17;;;;;;;0.20;0.20;;;13.40;74.60;;;;;;4994655;28;20054;-63
2021/05/10 04:45:44;;;;;;;0.20;0.20;;;13.40;74.90;;;;;;4994281;28;20039;-63
2021/05/10 04:48:11;;;;;;;0.30;0.30;;;13.40;74.70;;;;;;4994317;28;20045;-63
2021/05/10 04:50:37;;;;;;;0.20;0.20;;;13.50;74.90;;;;;;4994009;28;20563;-63
2021/05/10 04:53:08;;;;;;;0.30;0.30;;;13.40;74.60;;;;;;4994303;28;20050;-63
2021/05/10 04:55:35;;;;;;;0.28;0.28;;;13.40;75.30;;;;;;4994035;28;20050;-63
2021/05/10 04:58:01;;;;;;;0.38;0.38;;;13.40;74.00;;;;;;4993746;28;20069;-63
2021/05/10 05:00:27;;;;;;;0.30;0.30;;;13.40;74.00;;;;;;4993859;28;20092;-63
2021/05/10 05:02:54;;;;;;;0.30;0.30;;;13.40;73.80;;;;;;4993846;28;20547;-63
2021/05/10 05:05:20;;;;;;;0.20;0.20;;;13.40;73.70;;;;;;4993723;28;20137;-63
2021/05/10 05:07:46;;;;;;;0.20;0.20;;;13.50;73.80;;;;;;4993627;28;20447;-62
2021/05/10 05:10:13;;;;;;;0.20;0.20;;;13.50;73.70;;;;;;4994078;28;20073;-63
2021/05/10 05:12:40;;;;;;;0.30;0.30;;;13.50;73.90;;;;;;4993301;28;20046;-63
2021/05/10 05:15:08;;;;;;;0.20;0.20;;;13.50;74.20;;;;;;4993093;28;20510;-63
2021/05/10 05:17:35;;;;;;;0.47;0.47;;;13.50;74.00;;;;;;4981139;28;20124;-63
2021/05/10 05:20:03;;;;;;;0.30;0.30;;;13.50;74.10;;;;;;4986795;28;20142;-63
2021/05/10 05:22:30;;;;;;;0.40;0.40;;;13.50;74.20;;;;;;4981724;28;20602;-63
2021/05/10 05:24:57;;;;;;;0.20;0.20;;;13.50;74.60;;;;;;4984951;28;20055;-63
2021/05/10 05:27:24;;;;;;;0.38;0.38;;;13.40;74.50;;;;;;4991515;28;20090;-62
2021/05/10 05:29:51;;;;;;;0.25;0.25;;;13.30;74.70;;;;;;4985868;28;20061;-63
2021/05/10 05:32:18;;;;;;;0.40;0.40;;;13.30;74.70;;;;;;4984008;28;20058;-64
2021/05/10 05:34:44;;;;;;;0.20;0.20;;;13.40;74.80;;;;;;4984551;28;20188;-64
2021/05/10 05:37:10;;;;;;;0.30;0.30;;;13.50;74.80;;;;;;4992996;28;20089;-63
2021/05/10 05:39:36;;;;;;;0.28;0.28;;;13.50;74.70;;;;;;4992928;28;20054;-63
2021/05/10 05:42:03;;;;;;;0.30;0.30;;;13.60;74.40;;;;;;4983319;28;20049;-63
2021/05/10 05:44:33;;;;;;;0.22;0.22;;;13.70;74.30;;;;;;4975621;28;20090;-63
2021/05/10 05:47:02;;;;;;;0.30;0.30;;;13.70;74.40;;;;;;4975018;28;20101;-63
2021/05/10 05:49:29;;;;;;;0.35;0.35;;;13.70;74.50;;;;;;4975532;28;20053;-63
2021/05/10 05:51:56;;;;;;;0.30;0.30;;;13.70;74.50;;;;;;4975000;28;20392;-63
2021/05/10 05:54:22;;;;;;;0.28;0.28;;;13.70;74.80;;;;;;4986570;28;20133;-65
2021/05/10 05:56:50;;;;;;;0.40;0.40;;;13.70;75.00;;;;;;4974625;28;20101;-65
2021/05/10 05:59:17;;;;;;;0.30;0.30;;;13.70;75.10;;;;;;4987816;28;20093;-65
2021/05/10 06:01:44;;;;;;;0.25;0.25;;;13.60;75.40;;;;;;4991796;28;20517;-65
2021/05/10 06:04:11;;;;;;;0.50;0.50;;;13.60;75.40;;;;;;4991445;28;20058;-64
2021/05/10 06:06:37;;;;;;;0.30;0.30;;;13.60;75.40;;;;;;4989306;28;20055;-66
2021/05/10 06:09:07;;;;;;;0.50;0.50;;;13.70;75.00;;;;;;4991608;28;20095;-65
2021/05/10 06:11:33;;;;;;;0.40;0.40;;;13.70;74.90;;;;;;4991153;28;20490;-66
2021/05/10 06:13:59;;;;;;;0.38;0.38;;;13.70;74.90;;;;;;4990330;28;20145;-65
2021/05/10 06:16:27;;;;;;;0.30;0.30;;;13.80;75.10;;;;;;4991215;28;20058;-65
2021/05/10 06:18:54;;;;;;;0.30;0.30;;;13.80;74.80;;;;;;4983721;28;20058;-65
2021/05/10 06:21:20;;;;;;;0.30;0.30;;;13.90;74.50;;;;;;4979254;28;20233;-64
2021/05/10 06:23:48;;;;;;;0.30;0.30;;;13.90;74.40;;;;;;4987157;28;20577;-66
2021/05/10 06:26:14;;;;;;;0.40;0.40;;;14.00;74.10;;;;;;4984278;28;20126;-66
2021/05/10 06:28:41;;;;;;;0.30;0.30;;;14.00;74.00;;;;;;4982327;28;20099;-66
2021/05/10 06:31:08;;;;;;;0.50;0.50;;;14.00;74.00;;;;;;4978444;28;20054;-66
2021/05/10 06:33:34;;;;;;;0.40;0.40;;;14.00;74.20;;;;;;4978150;28;20050;-65
2021/05/10 06:36:01;;;;;;;0.60;0.40;;;13.90;74.20;;;;;;4991763;28;20050;-66
2021/05/10 06:38:27;;;;;;;0.30;0.30;;;14.00;73.80;;;;;;4989777;28;20101;-64
2021/05/10 06:40:53;;;;;;;0.35;0.35;;;14.10;73.40;;;;;;4976440;28;20039;-65
2021/05/10 06:43:19;;;;;;;0.40;0.40;;;14.20;73.00;;;;;;4982912;28;20065;-65
2021/05/10 06:45:46;;;;;;;0.20;0.20;;;14.30;71.60;;;;;;4984514;28;20121;-65
2021/05/10 06:48:31;;;;;;;0.30;0.30;;;14.30;71.20;;;;;;4977331;28;20146;-65
2021/05/10 06:50:59;;;;;;;0.25;0.25;;;14.40;71.20;;;;;;4985177;28;20567;-65
2021/05/10 06:53:25;;;;;;;0.40;0.40;;;14.40;71.00;;;;;;4976059;28;20054;-68
2021/05/10 06:55:52;;;;;;;0.22;0.22;;;14.50;70.90;;;;;;4990769;28;20189;-66
2021/05/10 06:58:19;;;;;;;0.43;0.43;;;14.50;70.80;;;;;;4979282;28;20160;-66
2021/05/10 07:00:46;;;;;;;0.30;0.30;;;14.60;70.30;;;;;;4978372;28;20050;-65
2021/05/10 07:03:16;;;;;;;0.25;0.25;;;14.60;70.20;;;;;;4989425;28;20108;-66
2021/05/10 07:05:44;;;;;;;0.40;0.40;;;14.60;70.40;;;;;;4986946;28;20137;-65
2021/05/10 07:08:11;;;;;;;0.45;0.45;;;14.60;70.10;;;;;;4982057;28;20043;-65
2021/05/10 07:10:38;;;;;;;0.30;0.30;;;14.70;70.00;;;;;;4990993;28;20161;-65
2021/05/10 07:13:05;;;;;;;0.30;0.30;;;14.70;69.90;;;;;;4980384;28;20167;-65
2021/05/10 07:15:34;;;;;;;0.35;0.35;;;14.80;69.80;;;;;;4982331;28;20473;-66
2021/05/10 07:18:08;;;;;;;0.40;0.40;;;15.00;68.30;;;;;;4985805;28;20516;-66
2021/05/10 07:20:35;;;;;;;0.20;0.20;;;15.00;68.00;;;;;;4978137;28;20050;-66
2021/05/10 07:23:03;;;;;;;0.20;0.20;;;15.20;68.40;;;;;;4987166;28;20077;-66
2021/05/10 07:25:29;;;;;;;0.28;0.28;;;15.40;67.00;;;;;;4986755;28;20046;-65
2021/05/10 07:27:55;;;;;;;0.40;0.40;;;15.40;66.20;;;;;;4990326;28;20043;-65
2021/05/10 07:30:22;;;;;;;0.30;0.30;;;15.40;66.20;;;;;;4976073;28;20055;-66
2021/05/10 07:32:48;;;;;;;0.38;0.38;;;15.50;65.80;;;;;;4974949;28;20411;-65
2021/05/10 07:35:15;;;;;;;0.22;0.22;;;15.60;65.00;;;;;;4986504;28;20050;-66
2021/05/10 07:37:41;;;;;;;0.40;0.40;;;15.60;64.90;;;;;;4991788;28;20129;-65
2021/05/10 07:40:08;;;;;;;0.40;0.40;;;15.50;65.10;;;;;;4981123;28;20178;-65
2021/05/10 07:42:35;;;;;;;0.30;0.30;;;15.60;65.10;;;;;;4983092;28;20517;-67
2021/05/10 07:45:02;;;;;;;0.38;0.38;;;15.70;63.10;;;;;;4990815;28;20050;-68
2021/05/10 07:47:30;;;;;;;0.50;0.40;;;15.80;62.60;;;;;;4977591;28;20507;-65
2021/05/10 07:49:58;;;;;;;0.40;0.40;;;16.00;62.20;;;;;;4986567;28;20061;-66
2021/05/10 07:52:24;;;;;;;0.65;0.40;;;16.20;61.80;;;;;;4990162;28;20074;-68
2021/05/10 07:54:51;;;;;;;0.30;0.30;;;16.30;61.60;;;;;;4987915;28;20054;-66
2021/05/10 07:57:18;;;;;;;0.25;0.25;;;16.60;60.80;;;;;;4990827;28;20051;-66
2021/05/10 07:59:47;;;;;;;0.30;0.30;;;16.90;60.50;;;;;;4994903;28;20129;-66
2021/05/10 08:02:13;;;;;;;0.40;0.40;;;17.10;57.80;;;;;;4989303;28;20069;-66
2021/05/10 08:04:41;;;;;;;0.30;0.30;;;17.20;59.30;;;;;;4998290;28;20100;-66
2021/05/10 08:07:08;;;;;;;0.28;0.28;;;17.60;56.90;;;;;;4993679;28;20525;-66
2021/05/10 08:09:35;;;;;;;0.20;0.20;;;18.10;55.10;;;;;;4991074;28;20050;-67
2021/05/10 08:12:01;;;;;;;0.20;0.20;;;18.60;51.80;;;;;;4991348;28;20196;-67
2021/05/10 08:14:29;;;;;;;0.20;0.20;;;18.90;51.70;;;;;;4989552;28;20050;-69
2021/05/10 08:16:59;;;;;;;0.28;0.28;;;18.80;50.60;;;;;;4991785;28;20050;-66
2021/05/10 08:19:27;;;;;;;0.20;0.20;;;18.80;51.20;;;;;;4989707;28;20100;-66
2021/05/10 08:21:58;;;;;;;0.20;0.20;;;18.90;51.40;;;;;;4987242;28;20096;-66
2021/05/10 08:24:24;;;;;;;0.38;0.38;;;19.20;49.60;;;;;;4993016;28;20185;-66
2021/05/10 08:26:51;;;;;;;1.35;0.22;;;19.50;48.30;;;;;;4983042;28;20129;-66
2021/05/10 08:29:17;;;;;;;0.20;0.20;;;19.80;46.00;;;;;;4978616;28;20050;-66
2021/05/10 08:31:46;;;;;;;0.20;0.20;;;20.00;44.40;;;;;;4982532;28;20078;-66
2021/05/10 08:34:17;;;;;;;0.10;0.10;;;19.80;45.30;;;;;;4986463;28;20524;-66
2021/05/10 08:36:44;;;;;;;0.10;0.10;;;19.80;44.90;;;;;;4994489;28;20226;-66
2021/05/10 08:39:12;;;;;;;0.20;0.20;;;20.00;44.90;;;;;;4983366;28;20047;-66
2021/05/10 08:41:40;;;;;;;0.25;0.25;;;20.30;44.00;;;;;;4973800;28;20102;-66
2021/05/10 08:44:09;;;;;;;0.28;0.28;;;20.80;43.60;;;;;;4977271;28;20042;-66
2021/05/10 08:46:37;;;;;;;0.20;0.20;;;21.20;42.30;;;;;;4980000;28;20102;-66
2021/05/10 08:49:04;;;;;;;0.30;0.30;;;21.30;41.00;;;;;;4981285;28;20066;-67
2021/05/10 08:51:33;;;;;;;0.20;0.20;;;21.00;39.40;;;;;;4979523;28;20085;-66
2021/05/10 08:54:00;;;;;;;0.20;0.20;;;20.70;40.60;;;;;;4978740;28;20165;-66
2021/05/10 08:56:27;;;;;;;0.20;0.20;;;20.00;41.50;;;;;;4983316;28;20050;-66
2021/05/10 08:58:53;;;;;;;0.20;0.20;;;19.80;42.60;;;;;;4988152;28;20490;-66
2021/05/10 09:01:20;;;;;;;0.52;0.20;;;19.90;43.10;;;;;;4985948;28;20517;-66
2021/05/10 09:03:50;;;;;;;0.30;0.30;;;19.90;42.00;;;;;;4986091;28;20093;-66
2021/05/10 09:06:27;;;;;;;0.30;0.30;;;20.10;42.00;;;;;;4986661;28;20051;-67
2021/05/10 09:08:54;;;;;;;0.30;0.30;;;20.30;42.10;;;;;;4983973;28;20076;-66
2021/05/10 09:11:20;;;;;;;0.20;0.20;;;20.70;40.60;;;;;;4988459;28;20572;-67
2021/05/10 09:13:54;;;;;;;0.10;0.10;;;21.20;39.90;;;;;;4990482;28;20129;-66
2021/05/10 09:16:21;;;;;;;0.22;0.22;;;21.40;39.50;;;;;;4987767;28;20042;-66
2021/05/10 09:18:55;;;;;;;0.30;0.30;;;21.50;38.80;;;;;;4978598;28;20134;-66
2021/05/10 09:21:24;;;;;;;0.32;0.30;;;21.40;38.50;;;;;;4978523;28;20050;-67
2021/05/10 09:23:52;;;;;;;0.22;0.20;;;21.50;38.10;;;;;;4990111;28;20058;-66
2021/05/10 09:26:31;;;;;;;0.28;0.28;;;20.70;39.60;;;;;;4982414;28;20043;-66
2021/05/10 09:28:58;;;;;;;0.30;0.30;;;20.70;40.60;;;;;;4985191;28;20050;-66
2021/05/10 09:31:26;;;;;;;0.20;0.20;;;21.20;40.00;;;;;;4982426;28;20506;-66
2021/05/10 09:33:53;;;;;;;0.30;0.17;;;21.50;39.20;;;;;;4978965;28;20046;-66
2021/05/10 09:36:31;;;;;;;0.20;0.20;;;21.40;39.00;;;;;;4992393;28;20522;-66
2021/05/10 09:38:59;;;;;;;0.32;0.20;;;21.00;40.30;;;;;;4981718;28;20097;-65
2021/05/10 09:41:26;;;;;;;0.40;0.20;;;20.50;42.80;;;;;;4973770;28;20050;-66
2021/05/10 09:44:07;;;;;;;0.30;0.30;;;20.00;45.60;;;;;;4973436;28;20051;-65
2021/05/10 09:46:40;;;;;;;0.22;0.22;;;19.60;47.40;;;;;;4973910;28;20054;-65
2021/05/10 09:49:08;;;;;;;0.10;0.10;;;19.20;48.10;;;;;;4974212;28;20130;-65
2021/05/10 09:51:35;;;;;;;0.15;0.15;;;19.00;49.40;;;;;;4978894;28;20065;-64
2021/05/10 09:54:13;;;;;;;0.20;0.20;;;19.20;50.90;;;;;;4987202;28;20054;-64
2021/05/10 09:56:40;;;;;;;0.30;0.30;;;19.80;50.10;;;;;;4986039;28;20062;-65
2021/05/10 09:59:15;;;;;;;0.20;0.20;;;20.30;48.90;;;;;;4974553;28;20109;-64
2021/05/10 10:01:47;;;;;;;1.20;0.20;;;20.70;46.10;;;;;;4970848;28;20054;-64
2021/05/10 10:04:18;;;;;;;0.57;0.28;;;20.70;44.10;;;;;;4970665;28;20062;-65
2021/05/10 10:06:46;;;;;;;0.20;0.20;;;20.80;42.80;;;;;;4981689;28;20058;-64
2021/05/10 10:09:12;;;;;;;0.20;0.20;;;20.50;42.80;;;;;;4982816;28;20190;-66
2021/05/10 10:11:38;;;;;;;0.32;0.25;;;20.60;42.90;;;;;;4974392;28;20054;-65
2021/05/10 10:14:05;;;;;;;0.10;0.10;;;21.20;43.20;;;;;;4980380;28;20050;-65
2021/05/10 10:16:34;;;;;;;0.30;0.30;;;21.50;42.10;;;;;;4975275;28;20093;-65
2021/05/10 10:19:04;;;;;;;0.25;0.20;;;21.30;41.00;;;;;;4986117;28;20169;-63
2021/05/10 10:21:31;;;;;;;0.28;0.28;;;20.90;41.60;;;;;;4977049;28;20046;-66
2021/05/10 10:24:01;;;;;;;0.10;0.10;;;20.30;40.70;;;;;;4983645;28;20053;-67
2021/05/10 10:26:27;;;;;;;;;;;19.70;40.40;;;;;;4989183;28;20129;-66
2021/05/10 10:28:54;;;;;;;0.10;0.10;;;19.00;42.30;;;;;;4984794;28;20005;-65
2021/05/10 10:31:28;;;;;;;0.15;0.15;;;18.40;43.60;;;;;;4987570;28;20133;-67
2021/05/10 10:34:12;;;;;;;0.10;0.10;;;18.00;46.10;;;;;;4976960;28;20100;-66
2021/05/10 10:36:43;;;;;;;0.22;0.22;;;17.60;47.70;;;;;;4972411;28;20180;-66
2021/05/10 10:39:14;;;;;;;0.17;0.17;;;17.70;48.10;;;;;;4972372;28;20133;-66
2021/05/10 10:41:55;;;;;;;0.20;0.20;;;17.90;47.90;;;;;;4971213;28;20065;-66
2021/05/10 10:44:41;;;;;;;0.10;0.10;;;18.00;47.10;;;;;;4972144;28;20062;-65
2021/05/10 10:47:12;;;;;;;0.10;0.10;;;18.10;46.00;;;;;;4976509;28;20446;-66
2021/05/10 10:49:41;;;;;;;0.20;0.20;;;18.20;45.70;;;;;;4990438;28;20603;-66
2021/05/10 10:52:21;;;;;;;0.10;0.10;;;18.30;44.20;;;;;;4990397;28;20050;-65
2021/05/10 10:55:18;;;;;;;0.40;0.40;;;18.40;44.00;;;;;;4974285;28;20101;-66
2021/05/10 10:57:45;;;;;;;0.25;0.25;;;18.30;44.30;;;;;;4974264;28;20054;-66
2021/05/10 11:00:16;;;;;;;0.20;0.20;;;18.20;45.60;;;;;;4974122;28;20073;-66
2021/05/10 11:02:44;;;;;;;0.30;0.20;;;18.10;45.40;;;;;;4975995;28;20074;-66
2021/05/10 11:05:12;;;;;;;0.25;0.22;;;18.20;44.60;;;;;;4975122;28;20082;-65
2021/05/10 11:08:07;;;;;;;0.20;0.20;;;18.30;44.10;;;;;;4976304;28;20503;-66
2021/05/10 11:10:55;;;;;;;0.17;0.17;;;18.50;44.80;;;;;;4978118;28;20086;-65
2021/05/10 11:13:30;;;;;;;0.20;0.20;;;18.60;44.30;;;;;;4985896;28;20200;-65
2021/05/10 11:15:57;;;;;;;0.57;0.30;;;18.70;42.20;;;;;;4987184;28;20054;-66
2021/05/10 11:18:33;;;;;;;0.20;0.20;;;18.80;42.50;;;;;;4987414;28;20549;-66
2021/05/10 11:21:00;;;;;;;0.20;0.20;;;18.90;42.60;;;;;;4988674;28;20057;-66
2021/05/10 11:23:26;;;;;;;0.20;0.20;;;18.90;43.00;;;;;;4986415;28;20043;-66
2021/05/10 11:26:01;;;;;;;0.20;0.20;;;18.90;43.30;;;;;;4991080;28;20038;-65
2021/05/10 11:28:28;;;;;;;0.20;0.20;;;19.00;42.70;;;;;;4990877;28;20192;-66
2021/05/10 11:30:54;;;;;;;0.45;0.22;;;19.00;43.00;;;;;;4988065;28;20177;-66
2021/05/10 11:33:55;;;;;;;0.20;0.20;;;18.90;43.10;;;;;;4985230;28;20046;-66
2021/05/10 11:36:25;;;;;;;0.20;0.20;;;18.90;42.70;;;;;;4982662;28;20054;-66
2021/05/10 11:38:55;;;;;;;0.20;0.20;;;18.80;41.10;;;;;;4984428;28;20153;-65
2021/05/10 11:41:48;;;;;;;0.37;0.20;;;18.80;39.80;;;;;;4983981;28;20098;-66
2021/05/10 11:44:29;;;;;;;0.22;0.20;;;18.80;39.90;;;;;;4978701;28;20129;-66
2021/05/10 11:46:57;;;;;;;0.15;0.15;;;18.80;39.80;;;;;;4987978;28;20057;-66
2021/05/10 11:49:31;;;;;;;0.13;0.13;;;18.70;40.90;;;;;;4984988;28;20050;-66
2021/05/10 11:52:09;;;;;;;0.10;0.10;;;18.70;42.00;;;;;;4987216;28;20101;-66
2021/05/10 11:54:38;;;;;;;0.10;0.10;;;18.70;39.20;;;;;;4977905;28;20145;-66
2021/05/10 11:57:06;;;;;;;0.22;0.22;;;18.60;39.60;;;;;;4988828;28;20046;-66
2021/05/10 12:02:08;;;;;;;0.43;0.15;;;18.70;39.80;;;;;;4981685;28;20057;-66
2021/05/10 12:04:54;;;;;;;0.17;0.10;;;18.80;38.80;;;;;;4986773;28;20058;-66
2021/05/10 12:07:22;;;;;;;0.40;0.20;;;18.60;38.90;;;;;;4981145;28;20082;-66
2021/05/10 12:09:56;;;;;;;0.20;0.20;;;18.60;39.80;;;;;;4989985;28;20160;-66
2021/05/10 12:12:32;;;;;;;0.20;0.17;;;18.60;39.50;;;;;;4984473;28;20078;-66
2021/05/10 12:15:23;;;;;;;0.20;0.20;;;18.60;39.80;;;;;;4985055;28;20081;-66
2021/05/10 12:18:04;;;;;;;0.38;0.38;;;18.60;40.20;;;;;;4982547;28;20054;-66
2021/05/10 12:20:32;;;;;;;0.77;0.20;;;18.60;40.90;;;;;;4979083;28;20050;-66
2021/05/10 12:23:01;;;;;;;0.57;0.35;;;18.60;40.30;;;;;;4979217;28;20126;-66
2021/05/10 12:25:37;;;;;;;0.68;0.30;;;18.50;40.60;;;;;;4983401;28;20597;-66
2021/05/10 12:28:15;;;;;;;1.50;0.30;;;18.50;41.80;;;;;;4977484;28;20526;-65
2021/05/10 12:30:44;;;;;;;0.30;0.30;;;18.50;40.70;;;;;;4972957;28;20108;-65
2021/05/10 12:33:17;;;;;;;0.20;0.20;;;18.50;40.70;;;;;;4970502;28;20129;-69
2021/05/10 12:35:45;;;;;;;0.20;0.20;;;18.40;42.30;;;;;;4984010;28;20054;-66
2021/05/10 12:38:12;;;;;;;0.35;0.35;;;18.40;41.20;;;;;;4991981;28;20458;-66
2021/05/10 12:40:40;;;;;;;0.15;0.15;;;18.50;40.70;;;;;;4992725;28;20529;-66
2021/05/10 12:43:16;;;;;;;0.20;0.20;;;18.60;39.80;;;;;;4992158;28;20042;-66
2021/05/10 12:45:56;;;;;;;0.30;0.30;;;18.60;39.80;;;;;;4983709;28;20050;-66
2021/05/10 12:48:24;;;;;;;0.45;0.43;;;18.50;39.70;;;;;;4993090;28;20057;-66
2021/05/10 12:50:54;;;;;;;0.45;0.30;;;18.40;40.60;;;;;;4990426;28;20051;-66
2021/05/10 12:53:35;;;;;;;0.30;0.30;;;18.40;40.60;;;;;;4988718;28;20482;-66
2021/05/10 12:56:07;;;;;;;0.20;0.20;;;18.30;40.20;;;;;;4988793;28;20369;-66
2021/05/10 12:58:38;;;;;;;0.20;0.20;;;18.30;41.00;;;;;;4990685;28;20058;-66
2021/05/10 13:01:10;;;;;;;0.73;0.30;;;18.40;40.70;;;;;;4990160;28;20046;-66
2021/05/10 13:03:36;;;;;;;0.20;0.20;;;18.30;40.30;;;;;;4989148;28;20046;-65
2021/05/10 13:06:04;;;;;;;0.30;0.30;;;18.30;39.90;;;;;;4979727;28;20137;-66